createdAt,value
2023-03-20T08:01:48.370Z,-68
2023-03-20T08:04:19.500Z,-66
2023-03-20T08:06:47.097Z,-65
2023-03-20T08:09:14.695Z,-65
2023-03-20T08:11:42.547Z,-65
2023-03-20T08:14:09.963Z,-65
2023-03-20T08:16:37.745Z,-65
2023-03-20T08:19:06.272Z,-66
2023-03-20T08:21:33.912Z,-65
2023-03-20T08:24:01.492Z,-65
2023-03-20T08:26:28.862Z,-65
2023-03-20T08:28:56.266Z,-66
2023-03-20T08:31:23.664Z,-66
2023-03-20T08:33:52.063Z,-66
2023-03-20T08:36:20.869Z,-66
2023-03-20T08:38:50.287Z,-66
2023-03-20T08:41:19.059Z,-66
2023-03-20T08:43:47.699Z,-64
2023-03-20T08:46:15.193Z,-65
2023-03-20T08:48:42.632Z,-66
2023-03-20T08:51:10.204Z,-67
2023-03-20T08:53:37.557Z,-66
2023-03-20T08:56:05.856Z,-67
2023-03-20T08:58:33.345Z,-67
2023-03-20T09:01:10.441Z,-67
2023-03-20T09:03:38.133Z,-68
2023-03-20T09:06:09.422Z,-68
2023-03-20T09:08:36.909Z,-68
2023-03-20T09:11:06.131Z,-68
2023-03-20T09:13:33.921Z,-68
2023-03-20T09:16:01.363Z,-68
2023-03-20T09:18:28.869Z,-68
2023-03-20T09:20:56.779Z,-68
2023-03-20T09:23:24.234Z,-67
2023-03-20T09:25:51.694Z,-67
2023-03-20T09:28:19.634Z,-68
2023-03-20T09:30:47.047Z,-68
2023-03-20T09:33:15.005Z,-68
2023-03-20T09:35:43.768Z,-68
2023-03-20T09:38:12.385Z,-68
2023-03-20T09:41:02.965Z,-68
2023-03-20T09:44:20.984Z,-68
2023-03-20T09:47:44.190Z,-68
2023-03-20T09:50:54.942Z,-68
2023-03-20T09:53:41.062Z,-69
2023-03-20T09:56:25.344Z,-69
2023-03-20T09:59:06.426Z,-68
2023-03-20T10:01:55.265Z,-68
2023-03-20T10:04:28.626Z,-68
2023-03-20T10:06:56.971Z,-68
2023-03-20T10:09:32.676Z,-68
2023-03-20T10:12:49.677Z,-68
2023-03-20T10:16:01.861Z,-67
2023-03-20T10:18:32.803Z,-68
2023-03-20T10:21:31.871Z,-68
2023-03-20T10:24:15.833Z,-68
2023-03-20T10:26:43.642Z,-68
2023-03-20T10:29:53.003Z,-68
2023-03-20T10:32:36.228Z,-68
2023-03-20T10:36:04.724Z,-68
2023-03-20T10:39:33.915Z,-68
2023-03-20T10:42:10.422Z,-69
2023-03-20T10:44:53.335Z,-69
2023-03-20T10:47:25.080Z,-68
2023-03-20T10:50:06.359Z,-68
2023-03-20T10:52:40.554Z,-68
2023-03-20T10:55:27.169Z,-68
2023-03-20T10:58:26.642Z,-68
2023-03-20T11:00:57.200Z,-67
2023-03-20T11:03:29.631Z,-68
2023-03-20T11:06:23.023Z,-68
2023-03-20T11:08:53.333Z,-68
2023-03-20T11:11:30.800Z,-68
2023-03-20T11:14:09.333Z,-68
2023-03-20T11:16:38.922Z,-68
2023-03-20T11:19:11.657Z,-68
2023-03-20T11:22:23.150Z,-68
2023-03-20T11:25:02.578Z,-68
2023-03-20T11:27:36.874Z,-68
2023-03-20T11:30:08.399Z,-66
2023-03-20T11:32:47.155Z,-69
2023-03-20T11:35:26.335Z,-68
2023-03-20T11:38:14.926Z,-67
2023-03-20T11:40:42.321Z,-68
2023-03-20T11:43:27.179Z,-68
2023-03-20T11:46:01.430Z,-68
2023-03-20T11:48:46.967Z,-69
2023-03-20T11:51:21.763Z,-68
2023-03-20T11:53:48.955Z,-68
2023-03-20T11:56:26.636Z,-68
2023-03-20T11:59:14.942Z,-68
2023-03-20T12:01:53.579Z,-68
2023-03-20T12:04:41.978Z,-68
2023-03-20T12:07:35.103Z,-67
2023-03-20T12:10:12.833Z,-68
2023-03-20T12:12:54.841Z,-67
2023-03-20T12:15:42.010Z,-68
2023-03-20T12:19:01.641Z,-69
2023-03-20T12:22:21.635Z,-69
2023-03-20T12:25:52.804Z,-69
2023-03-20T12:28:46.830Z,-69
2023-03-20T12:32:03.850Z,-70
2023-03-20T12:34:44.943Z,-69
2023-03-20T12:37:13.685Z,-69
2023-03-20T12:39:59.309Z,-69
2023-03-20T12:43:02.700Z,-68
2023-03-20T12:45:48.579Z,-69
2023-03-20T12:48:38.141Z,-69
2023-03-20T12:51:41.763Z,-69
2023-03-20T12:55:21.160Z,-69
2023-03-20T12:58:41.079Z,-69
2023-03-20T13:01:27.639Z,-68
2023-03-20T13:04:45.224Z,-62
2023-03-20T13:07:25.951Z,-62
2023-03-20T13:10:24.485Z,-62
2023-03-20T13:13:13.026Z,-62
2023-03-20T13:16:20.743Z,-62
2023-03-20T13:19:49.248Z,-63
2023-03-20T13:23:08.536Z,-62
2023-03-20T13:25:53.683Z,-63
2023-03-20T13:28:54.525Z,-63
2023-03-20T13:32:02.224Z,-63
2023-03-20T13:35:14.959Z,-63
2023-03-20T13:38:07.338Z,-63
2023-03-20T13:40:44.186Z,-63
2023-03-20T13:43:49.893Z,-63
2023-03-20T13:46:26.782Z,-63
2023-03-20T13:48:58.785Z,-63
2023-03-20T13:52:01.865Z,-63
2023-03-20T13:55:11.482Z,-63
2023-03-20T13:57:57.043Z,-63
2023-03-20T14:00:46.404Z,-63
2023-03-20T14:03:37.794Z,-62
2023-03-20T14:06:47.405Z,-62
2023-03-20T14:09:38.956Z,-63
2023-03-20T14:12:13.458Z,-63
2023-03-20T14:14:55.130Z,-63
2023-03-20T14:17:30.876Z,-63
2023-03-20T14:20:10.628Z,-63
2023-03-20T14:22:44.573Z,-63
2023-03-20T14:25:21.847Z,-63
2023-03-20T14:28:27.256Z,-65
2023-03-20T14:31:34.287Z,-67
2023-03-20T14:34:12.172Z,-63
2023-03-20T14:37:02.035Z,-64
2023-03-20T14:40:15.622Z,-62
2023-03-20T14:43:03.260Z,-62
2023-03-20T14:46:03.709Z,-62
2023-03-20T14:48:47.626Z,-62
2023-03-20T14:51:41.416Z,-62
2023-03-20T14:54:31.111Z,-62
2023-03-20T14:57:26.559Z,-61
2023-03-20T14:59:55.355Z,-62
2023-03-20T15:02:36.412Z,-62
2023-03-20T15:05:04.766Z,-62
2023-03-20T15:07:39.559Z,-62
2023-03-20T15:10:08.137Z,-62
2023-03-20T15:12:37.583Z,-62
2023-03-20T15:15:27.859Z,-63
2023-03-20T15:17:55.316Z,-62
2023-03-20T15:20:31.867Z,-62
2023-03-20T15:23:02.554Z,-62
2023-03-20T15:25:47.522Z,-61
2023-03-20T15:28:26.100Z,-62
2023-03-20T15:30:59.194Z,-62
2023-03-20T15:33:45.787Z,-62
2023-03-20T15:36:28.516Z,-62
2023-03-20T15:39:27.246Z,-62
2023-03-20T15:42:09.698Z,-62
2023-03-20T15:44:41.747Z,-62
2023-03-20T15:47:22.906Z,-62
2023-03-20T15:50:00.719Z,-62
2023-03-20T15:52:42.526Z,-62
2023-03-20T15:55:20.008Z,-62
2023-03-20T15:57:50.302Z,-62
2023-03-20T16:00:34.209Z,-62
2023-03-20T16:03:07.774Z,-62
2023-03-20T16:05:36.184Z,-62
2023-03-20T16:08:30.952Z,-62
2023-03-20T16:11:19.084Z,-64
2023-03-20T16:13:49.924Z,-62
2023-03-20T16:16:24.613Z,-63
2023-03-20T16:18:52.440Z,-62
2023-03-20T16:21:32.136Z,-63
2023-03-20T16:24:01.485Z,-62
2023-03-20T16:26:29.217Z,-62
2023-03-20T16:29:02.703Z,-63
2023-03-20T16:31:35.228Z,-62
2023-03-20T16:34:18.065Z,-62
2023-03-20T16:36:56.454Z,-62
2023-03-20T16:39:30.730Z,-62
2023-03-20T16:42:23.995Z,-62
2023-03-20T16:44:58.859Z,-62
2023-03-20T16:47:38.416Z,-62
2023-03-20T16:50:22.790Z,-62
2023-03-20T16:52:58.680Z,-62
2023-03-20T16:55:35.140Z,-62
2023-03-20T16:58:07.352Z,-62
2023-03-20T17:01:04.500Z,-62
2023-03-20T17:03:49.476Z,-62
2023-03-20T17:06:20.711Z,-62
2023-03-20T17:09:13.181Z,-62
2023-03-20T17:11:50.327Z,-62
2023-03-20T17:14:20.792Z,-70
2023-03-20T17:16:48.338Z,-63
2023-03-20T17:19:19.352Z,-63
2023-03-20T17:21:47.784Z,-63
2023-03-20T17:24:17.417Z,-62
2023-03-20T17:26:57.195Z,-62
2023-03-20T17:29:24.621Z,-62
2023-03-20T17:31:52.690Z,-62
2023-03-20T17:34:20.110Z,-62
2023-03-20T17:36:48.959Z,-62
2023-03-20T17:39:21.097Z,-62
2023-03-20T17:41:48.625Z,-62
2023-03-20T17:44:16.075Z,-63
2023-03-20T17:46:57.277Z,-62
2023-03-20T17:49:27.521Z,-62
2023-03-20T17:51:56.187Z,-61
2023-03-20T17:54:23.687Z,-62
2023-03-20T17:56:51.133Z,-62
2023-03-20T17:59:18.493Z,-63
2023-03-20T18:01:46.041Z,-62
2023-03-20T18:04:13.530Z,-63
2023-03-20T18:06:40.996Z,-62
2023-03-20T18:09:13.338Z,-62
2023-03-20T18:11:41.172Z,-62
2023-03-20T18:14:08.688Z,-62
2023-03-20T18:16:36.259Z,-62
2023-03-20T18:19:03.820Z,-62
2023-03-20T18:21:31.232Z,-62
2023-03-20T18:23:58.651Z,-62
2023-03-20T18:26:27.652Z,-62
2023-03-20T18:28:56.233Z,-62
2023-03-20T18:31:23.854Z,-63
2023-03-20T18:33:53.405Z,-63
2023-03-20T18:36:24.462Z,-62
2023-03-20T18:38:52.581Z,-62
2023-03-20T18:41:20.917Z,-62
2023-03-20T18:43:48.674Z,-62
2023-03-20T18:46:26.021Z,-62
2023-03-20T18:48:54.446Z,-62
2023-03-20T18:51:21.926Z,-62
2023-03-20T18:53:49.500Z,-62
2023-03-20T18:56:25.900Z,-62
2023-03-20T18:58:54.174Z,-62
2023-03-20T19:01:22.080Z,-63
2023-03-20T19:03:50.088Z,-62
2023-03-20T19:06:23.145Z,-62
2023-03-20T19:08:52.439Z,-62
2023-03-20T19:11:21.733Z,-62
2023-03-20T19:13:53.624Z,-62
2023-03-20T19:16:26.803Z,-62
2023-03-20T19:18:58.993Z,-62
2023-03-20T19:21:27.117Z,-62
2023-03-20T19:24:03.557Z,-62
2023-03-20T19:26:34.764Z,-62
2023-03-20T19:29:09.195Z,-62
2023-03-20T19:31:37.152Z,-62
2023-03-20T19:34:05.391Z,-62
2023-03-20T19:36:37.716Z,-61
2023-03-20T19:39:12.522Z,-62
2023-03-20T19:41:39.848Z,-62
2023-03-20T19:44:07.395Z,-62
2023-03-20T19:46:42.729Z,-62
2023-03-20T19:49:30.194Z,-61
2023-03-20T19:51:58.015Z,-63
2023-03-20T19:54:25.567Z,-62
2023-03-20T19:56:52.945Z,-61
2023-03-20T19:59:21.159Z,-62
2023-03-20T20:01:48.853Z,-62
2023-03-20T20:04:16.470Z,-62
2023-03-20T20:06:47.129Z,-62
2023-03-20T20:09:15.711Z,-62
2023-03-20T20:11:44.086Z,-62
2023-03-20T20:14:14.593Z,-62
2023-03-20T20:16:43.341Z,-62
2023-03-20T20:19:11.751Z,-62
2023-03-20T20:22:17.251Z,-62
2023-03-20T20:24:27.469Z,-63
2023-03-20T20:27:15.381Z,-61
2023-03-20T20:29:50.942Z,-62
2023-03-20T20:32:23.718Z,-62
2023-03-20T20:38:27.035Z,-63
2023-03-20T20:40:30.973Z,-62
2023-03-20T20:43:01.659Z,-62
2023-03-20T20:45:32.044Z,-62
2023-03-20T20:48:01.939Z,-62
2023-03-20T20:50:33.465Z,-62
2023-03-20T20:53:00.884Z,-62
2023-03-20T20:55:28.385Z,-62
2023-03-20T20:57:56.149Z,-62
2023-03-20T21:00:41.209Z,-62
2023-03-20T21:03:13.346Z,-62
2023-03-20T21:05:42.961Z,-62
2023-03-20T21:08:12.043Z,-62
2023-03-20T21:10:40.103Z,-62
2023-03-20T21:13:08.654Z,-62
2023-03-20T21:15:36.722Z,-62
2023-03-20T21:18:04.888Z,-62
2023-03-20T21:20:32.875Z,-62
2023-03-20T21:23:00.935Z,-62
2023-03-20T21:25:40.520Z,-61
2023-03-20T21:28:26.518Z,-68
2023-03-20T21:31:20.888Z,-69
2023-03-20T21:33:41.816Z,-69
2023-03-20T21:36:10.067Z,-68
2023-03-20T21:39:05.899Z,-69
2023-03-20T21:41:24.948Z,-68
2023-03-20T21:43:52.274Z,-68
2023-03-20T21:49:54.513Z,-67
2023-03-20T21:55:21.635Z,-68
2023-03-20T22:03:22.362Z,-68
2023-03-20T22:06:50.592Z,-69
2023-03-20T22:12:22.967Z,-68
2023-03-20T22:15:11.991Z,-68
2023-03-20T22:21:03.963Z,-64
2023-03-20T22:26:28.520Z,-64
2023-03-20T22:31:55.389Z,-64
2023-03-20T22:40:26.357Z,-63
2023-03-20T22:45:15.073Z,-64
2023-03-20T22:47:42.831Z,-64
2023-03-20T22:50:10.980Z,-64
2023-03-20T22:52:48.546Z,-64
2023-03-20T22:55:17.821Z,-64
2023-03-20T22:57:59.957Z,-64
2023-03-20T23:00:33.541Z,-63
2023-03-20T23:03:33.371Z,-64
2023-03-20T23:05:50.516Z,-67
2023-03-20T23:08:18.241Z,-64
2023-03-20T23:10:50.764Z,-64
